Time;durP1;ratioP1;P1;durP2;ratioP2;P2;SDS_P1;SDS_P2;PMS_P1;PMS_P2;Temp;Humidity;BMP_temperature;BMP_pressure;BME280_temperature;BME280_humidity;BME280_pressure;Samples;Min_cycle;Max_cycle;Signal;HPM_P1;HPM_P2
2021/04/17 00:01:57;;;;;;;1.95;1.02;;;20.50;41.60;;;;;;5092397;28;20039;-64
2021/04/17 00:04:24;;;;;;;1.83;1.20;;;20.50;41.60;;;;;;5091278;28;20616;-65
2021/04/17 00:06:50;;;;;;;1.33;0.90;;;20.50;41.50;;;;;;5091345;28;20032;-65
2021/04/17 00:09:19;;;;;;;2.88;1.10;;;20.50;41.50;;;;;;5091414;28;20028;-65
2021/04/17 00:11:46;;;;;;;2.10;1.10;;;20.50;41.50;;;;;;5092299;28;20146;-66
2021/04/17 00:14:16;;;;;;;1.45;1.02;;;20.50;41.50;;;;;;5091881;28;20373;-66
2021/04/17 00:16:42;;;;;;;1.65;0.93;;;20.50;42.10;;;;;;5091187;28;20463;-66
2021/04/17 00:19:08;;;;;;;1.38;1.00;;;20.50;41.40;;;;;;5091065;28;20103;-65
2021/04/17 00:21:33;;;;;;;1.50;1.00;;;20.40;41.30;;;;;;5092289;28;20028;-66
2021/04/17 00:24:00;;;;;;;2.90;1.20;;;20.40;41.30;;;;;;5092483;28;20032;-66
2021/04/17 00:26:26;;;;;;;3.33;1.40;;;20.50;41.30;;;;;;5091630;28;20050;-66
2021/04/17 00:28:52;;;;;;;1.95;1.00;;;20.40;41.20;;;;;;5092419;28;20385;-66
2021/04/17 00:31:19;;;;;;;1.98;1.05;;;20.40;41.30;;;;;;5091142;28;20020;-66
2021/04/17 00:33:44;;;;;;;1.70;1.00;;;20.30;41.10;;;;;;5092043;28;20107;-66
2021/04/17 00:36:10;;;;;;;1.55;1.27;;;20.40;41.20;;;;;;5091626;28;20071;-65
2021/04/17 00:38:36;;;;;;;1.92;1.30;;;20.40;41.20;;;;;;5091674;28;20471;-66
2021/04/17 00:41:02;;;;;;;1.63;1.05;;;20.40;41.10;;;;;;5091804;28;20024;-64
2021/04/17 00:43:28;;;;;;;2.00;1.10;;;20.40;41.10;;;;;;5091258;28;20036;-66
2021/04/17 00:45:54;;;;;;;2.92;1.30;;;20.40;41.10;;;;;;5091272;28;20461;-66
2021/04/17 00:48:20;;;;;;;2.15;1.15;;;20.40;41.10;;;;;;5090950;28;20088;-66
2021/04/17 00:50:46;;;;;;;1.25;0.90;;;20.40;41.10;;;;;;5092326;28;20108;-66
2021/04/17 00:53:12;;;;;;;1.50;1.10;;;20.40;41.00;;;;;;5091637;28;20027;-66
2021/04/17 00:55:37;;;;;;;1.63;1.00;;;20.40;41.00;;;;;;5090600;28;20028;-66
2021/04/17 00:58:04;;;;;;;2.17;1.20;;;20.50;41.00;;;;;;5090326;28;20066;-65
2021/04/17 01:00:34;;;;;;;1.13;0.90;;;20.40;41.00;;;;;;5092385;28;20062;-66
2021/04/17 01:03:23;;;;;;;1.05;0.90;;;20.50;41.00;;;;;;5091550;28;20047;-65
2021/04/17 01:05:53;;;;;;;1.42;0.88;;;20.40;40.90;;;;;;5090200;28;20036;-64
2021/04/17 01:08:41;;;;;;;1.48;0.90;;;20.40;40.90;;;;;;5090878;28;20177;-65
2021/04/17 01:11:14;;;;;;;2.00;1.33;;;20.40;40.90;;;;;;5090958;28;20440;-64
2021/04/17 01:13:42;;;;;;;1.27;0.85;;;20.40;40.80;;;;;;5092010;28;20412;-66
2021/04/17 01:16:08;;;;;;;1.55;0.80;;;20.40;40.80;;;;;;5090882;28;20036;-64
2021/04/17 01:18:34;;;;;;;1.00;0.90;;;20.50;40.90;;;;;;5091730;28;20039;-64
2021/04/17 01:21:01;;;;;;;1.65;0.95;;;20.50;40.80;;;;;;5092864;28;20024;-65
2021/04/17 01:23:36;;;;;;;1.67;1.08;;;20.40;40.80;;;;;;5095117;28;20849;-65
2021/04/17 01:26:16;;;;;;;1.75;1.15;;;20.40;40.80;;;;;;5095956;28;20024;-64
2021/04/17 01:28:46;;;;;;;2.20;0.98;;;20.40;40.80;;;;;;5095556;28;20097;-66
2021/04/17 01:31:14;;;;;;;1.17;0.98;;;20.40;40.70;;;;;;5094922;28;20020;-65
2021/04/17 01:33:44;;;;;;;1.30;1.00;;;20.40;40.70;;;;;;5095467;28;20020;-66
2021/04/17 01:36:10;;;;;;;1.00;0.85;;;20.40;40.70;;;;;;5074324;28;20031;-65
2021/04/17 01:38:43;;;;;;;1.73;1.20;;;20.40;40.70;;;;;;5082722;28;20389;-65
2021/04/17 01:41:14;;;;;;;1.60;1.13;;;20.40;40.70;;;;;;5094663;28;20024;-66
2021/04/17 01:43:41;;;;;;;1.63;1.20;;;20.40;40.70;;;;;;5095734;28;20031;-66
2021/04/17 01:46:19;;;;;;;2.15;1.55;;;20.40;40.70;;;;;;5094538;28;20101;-64
2021/04/17 01:48:47;;;;;;;2.83;1.15;;;20.40;41.20;;;;;;5095522;28;20036;-66
2021/04/17 01:51:13;;;;;;;1.20;0.98;;;20.40;40.60;;;;;;5094303;28;20021;-65
2021/04/17 01:53:41;;;;;;;1.02;0.85;;;20.40;40.70;;;;;;5094971;28;20126;-66
2021/04/17 01:56:08;;;;;;;3.15;1.23;;;20.40;40.60;;;;;;5094157;28;20028;-64
2021/04/17 01:58:38;;;;;;;2.20;1.02;;;20.40;40.60;;;;;;5095071;28;20071;-65
2021/04/17 02:01:05;;;;;;;1.17;0.90;;;20.40;40.60;;;;;;5094726;28;20124;-64
2021/04/17 02:03:30;;;;;;;1.27;1.00;;;20.40;40.60;;;;;;5094577;28;20055;-65
2021/04/17 02:05:56;;;;;;;1.10;0.80;;;20.40;40.60;;;;;;5094612;28;20024;-64
2021/04/17 02:08:22;;;;;;;1.52;1.00;;;20.40;40.60;;;;;;5093800;28;20075;-65
2021/04/17 02:10:50;;;;;;;1.40;1.10;;;20.40;40.50;;;;;;5094875;28;20453;-65
2021/04/17 02:13:17;;;;;;;1.88;1.00;;;20.50;40.60;;;;;;5093791;28;20058;-65
2021/04/17 02:15:43;;;;;;;0.82;0.80;;;20.40;40.50;;;;;;5094972;28;20032;-66
2021/04/17 02:18:21;;;;;;;1.40;0.93;;;20.40;40.50;;;;;;5093825;28;20040;-64
2021/04/17 02:21:01;;;;;;;1.25;0.80;;;20.40;40.50;;;;;;5093819;28;20085;-66
2021/04/17 02:23:28;;;;;;;1.15;0.80;;;20.40;40.50;;;;;;5093781;28;20059;-66
2021/04/17 02:25:56;;;;;;;1.33;1.00;;;20.40;40.50;;;;;;5094605;28;20039;-65
2021/04/17 02:28:22;;;;;;;1.90;1.20;;;20.40;40.50;;;;;;5092707;28;20068;-66
2021/04/17 02:30:48;;;;;;;1.42;1.10;;;20.40;40.50;;;;;;5094339;28;20036;-66
2021/04/17 02:33:13;;;;;;;1.02;0.82;;;20.40;40.40;;;;;;5093320;28;20043;-65
2021/04/17 02:35:39;;;;;;;1.60;1.17;;;20.40;40.50;;;;;;5094812;28;20074;-66
2021/04/17 02:38:05;;;;;;;0.82;0.75;;;20.40;40.40;;;;;;5093977;28;20115;-64
2021/04/17 02:40:30;;;;;;;1.55;1.10;;;20.40;40.40;;;;;;5093638;28;20020;-66
2021/04/17 02:42:56;;;;;;;1.42;1.10;;;20.40;40.40;;;;;;5094093;28;20028;-65
2021/04/17 02:45:22;;;;;;;1.80;1.10;;;20.40;40.40;;;;;;5093388;28;20069;-65
2021/04/17 02:47:47;;;;;;;1.40;1.02;;;20.40;40.40;;;;;;5094297;28;20046;-65
2021/04/17 02:50:13;;;;;;;0.95;0.80;;;20.40;40.50;;;;;;5093410;28;20024;-64
2021/04/17 02:52:39;;;;;;;1.50;0.93;;;20.40;40.30;;;;;;5094058;28;20476;-65
2021/04/17 02:55:05;;;;;;;1.60;0.90;;;20.40;40.30;;;;;;5093843;28;20055;-65
2021/04/17 02:57:31;;;;;;;1.60;1.00;;;20.40;40.30;;;;;;5093586;28;20078;-65
2021/04/17 02:59:57;;;;;;;1.33;0.88;;;20.50;40.40;;;;;;5093909;28;20071;-64
2021/04/17 03:02:22;;;;;;;1.15;1.02;;;20.40;40.30;;;;;;5092882;28;20024;-65
2021/04/17 03:04:48;;;;;;;1.60;1.00;;;20.40;40.30;;;;;;5094195;28;20048;-65
2021/04/17 03:07:14;;;;;;;1.48;1.00;;;20.40;40.30;;;;;;5092329;28;20044;-65
2021/04/17 03:09:40;;;;;;;1.35;0.95;;;20.40;40.30;;;;;;5093467;28;20028;-66
2021/04/17 03:12:07;;;;;;;3.00;1.10;;;20.40;40.30;;;;;;5092688;28;20485;-64
2021/04/17 03:14:32;;;;;;;1.80;1.38;;;20.40;40.30;;;;;;5092900;28;20028;-65
2021/04/17 03:16:58;;;;;;;1.30;0.90;;;20.40;40.30;;;;;;5093019;28;20493;-66
2021/04/17 03:19:23;;;;;;;1.10;0.90;;;20.50;40.40;;;;;;5092355;28;20046;-66
2021/04/17 03:21:49;;;;;;;1.33;1.00;;;20.50;40.30;;;;;;5093490;28;20106;-65
2021/04/17 03:24:15;;;;;;;1.23;0.80;;;20.40;40.30;;;;;;5091838;28;20052;-65
2021/04/17 03:26:40;;;;;;;1.98;1.08;;;20.50;40.40;;;;;;5092829;28;20071;-65
2021/04/17 03:29:06;;;;;;;1.45;1.10;;;20.40;40.20;;;;;;5093187;28;20036;-65
2021/04/17 03:31:32;;;;;;;3.20;1.10;;;20.50;40.30;;;;;;5092640;28;20028;-64
2021/04/17 03:33:58;;;;;;;2.17;1.15;;;20.50;40.30;;;;;;5092776;28;20055;-65
2021/04/17 03:36:23;;;;;;;1.42;0.93;;;20.50;40.30;;;;;;5092498;28;20028;-64
2021/04/17 03:38:49;;;;;;;1.25;0.98;;;20.50;40.30;;;;;;5093355;28;20020;-64
2021/04/17 03:41:14;;;;;;;1.35;0.95;;;20.50;40.90;;;;;;5091590;28;20035;-64
2021/04/17 03:43:40;;;;;;;1.17;0.93;;;20.50;40.30;;;;;;5092385;28;20020;-65
2021/04/17 03:46:06;;;;;;;3.38;1.20;;;20.50;40.30;;;;;;5092844;28;20480;-66
2021/04/17 03:48:31;;;;;;;1.08;0.98;;;20.50;40.30;;;;;;5091994;28;20112;-66
2021/04/17 03:50:57;;;;;;;1.50;1.10;;;20.50;40.30;;;;;;5092335;28;20490;-66
2021/04/17 03:53:23;;;;;;;2.25;0.82;;;20.50;40.30;;;;;;5092355;28;20403;-65
2021/04/17 03:55:49;;;;;;;3.35;1.13;;;20.50;40.30;;;;;;5092589;28;20351;-65
2021/04/17 03:58:14;;;;;;;1.45;0.93;;;20.50;40.30;;;;;;5091829;28;20081;-66
2021/04/17 04:00:40;;;;;;;1.35;1.10;;;20.50;40.20;;;;;;5092313;28;20476;-64
2021/04/17 04:03:06;;;;;;;1.60;1.20;;;20.50;40.20;;;;;;5090974;28;20040;-65
2021/04/17 04:05:31;;;;;;;1.17;1.05;;;20.50;40.20;;;;;;5091907;28;20028;-65
2021/04/17 04:07:57;;;;;;;1.20;1.10;;;20.50;40.20;;;;;;5092341;28;20059;-65
2021/04/17 04:10:23;;;;;;;2.38;1.27;;;20.50;40.20;;;;;;5092088;28;20024;-66
2021/04/17 04:12:49;;;;;;;1.73;1.27;;;20.50;40.20;;;;;;5092147;28;20077;-65
2021/04/17 04:15:15;;;;;;;1.55;1.00;;;20.50;40.20;;;;;;5091991;28;20460;-65
2021/04/17 04:17:41;;;;;;;1.20;1.10;;;20.50;40.20;;;;;;5092412;28;20418;-65
2021/04/17 04:20:08;;;;;;;2.30;0.93;;;20.50;40.30;;;;;;5092419;28;20031;-65
2021/04/17 04:22:35;;;;;;;1.38;1.00;;;20.50;40.20;;;;;;5091588;28;20024;-65
2021/04/17 04:25:02;;;;;;;1.45;1.00;;;20.50;40.20;;;;;;5092346;28;20024;-65
2021/04/17 04:27:28;;;;;;;1.88;1.05;;;20.50;40.20;;;;;;5090824;28;20036;-65
2021/04/17 04:29:53;;;;;;;3.40;1.10;;;20.50;40.20;;;;;;5092170;28;20035;-65
2021/04/17 04:32:19;;;;;;;2.25;1.42;;;20.50;40.20;;;;;;5091216;28;20412;-64
2021/04/17 04:34:45;;;;;;;1.70;1.13;;;20.50;40.20;;;;;;5091497;28;20073;-65
2021/04/17 04:37:10;;;;;;;1.17;1.05;;;20.50;40.20;;;;;;5091898;28;20035;-64
2021/04/17 04:39:36;;;;;;;1.65;1.23;;;20.50;40.20;;;;;;5092332;28;20039;-65
2021/04/17 04:42:02;;;;;;;1.67;1.27;;;20.50;40.20;;;;;;5090766;28;20039;-65
2021/04/17 04:44:28;;;;;;;1.77;0.95;;;20.50;40.20;;;;;;5091419;28;20028;-65
2021/04/17 04:46:54;;;;;;;3.55;1.15;;;20.50;40.20;;;;;;5091761;28;20109;-64
2021/04/17 04:49:20;;;;;;;2.20;1.10;;;20.50;40.20;;;;;;5089958;28;20492;-64
2021/04/17 04:51:45;;;;;;;1.52;1.00;;;20.50;40.20;;;;;;5091653;28;20111;-64
2021/04/17 04:54:11;;;;;;;2.05;1.20;;;20.50;40.20;;;;;;5091466;28;20027;-63
2021/04/17 04:56:37;;;;;;;2.28;1.00;;;20.50;40.20;;;;;;5091149;28;20477;-66
2021/04/17 04:59:02;;;;;;;1.40;1.10;;;20.50;40.10;;;;;;5091962;28;20024;-65
2021/04/17 05:01:28;;;;;;;1.38;1.08;;;20.50;40.10;;;;;;5091170;28;20031;-65
2021/04/17 05:03:54;;;;;;;1.90;1.10;;;20.50;40.10;;;;;;5091596;28;20044;-65
2021/04/17 05:06:20;;;;;;;1.27;1.00;;;20.50;40.20;;;;;;5089665;28;20028;-65
2021/04/17 05:08:46;;;;;;;1.75;1.27;;;20.50;40.10;;;;;;5079286;28;20040;-65
2021/04/17 05:11:11;;;;;;;1.55;1.00;;;20.50;40.10;;;;;;5091511;28;20024;-64
2021/04/17 05:13:37;;;;;;;1.33;1.10;;;20.50;40.10;;;;;;5091757;28;20036;-65
2021/04/17 05:16:03;;;;;;;1.35;1.10;;;20.50;40.10;;;;;;5091986;28;20024;-65
2021/04/17 05:18:29;;;;;;;1.73;1.10;;;20.50;40.10;;;;;;5091097;28;20032;-65
2021/04/17 05:20:54;;;;;;;2.28;1.15;;;20.50;40.10;;;;;;5092005;28;20055;-63
2021/04/17 05:23:20;;;;;;;1.42;1.05;;;20.50;40.20;;;;;;5090760;28;20385;-64
2021/04/17 05:25:45;;;;;;;4.65;1.48;;;20.50;40.10;;;;;;5091741;28;20024;-64
2021/04/17 05:28:11;;;;;;;3.95;1.05;;;20.60;40.10;;;;;;5090969;28;20048;-63
2021/04/17 05:30:37;;;;;;;1.55;1.08;;;20.60;40.20;;;;;;5091309;28;20467;-63
2021/04/17 05:33:04;;;;;;;2.15;1.23;;;20.60;40.30;;;;;;5091505;28;20016;-55
2021/04/17 05:35:30;;;;;;;3.25;1.00;;;20.60;40.20;;;;;;5090618;28;20107;-55
2021/04/17 05:37:57;;;;;;;2.53;1.25;;;20.60;40.30;;;;;;5090995;28;20029;-57
2021/04/17 05:40:24;;;;;;;3.72;1.40;;;20.60;40.20;;;;;;5089390;28;20035;-57
2021/04/17 05:42:49;;;;;;;1.50;1.10;;;20.70;40.30;;;;;;5090007;28;20120;-57
2021/04/17 05:45:15;;;;;;;4.30;1.60;;;20.70;40.20;;;;;;5090479;28;20099;-61
2021/04/17 05:47:42;;;;;;;2.50;1.25;;;20.70;40.20;;;;;;5091233;28;20079;-53
2021/04/17 05:50:08;;;;;;;3.20;1.10;;;20.70;40.30;;;;;;5091305;28;20040;-54
2021/04/17 05:52:34;;;;;;;2.13;1.02;;;20.70;40.30;;;;;;5090219;28;20036;-57
2021/04/17 05:55:00;;;;;;;2.97;1.30;;;20.80;40.30;;;;;;5091036;28;20090;-58
2021/04/17 05:57:26;;;;;;;11.57;4.72;;;20.80;40.20;;;;;;5089735;28;20097;-57
2021/04/17 05:59:53;;;;;;;7.25;6.25;;;20.20;35.20;;;;;;5091083;28;20129;-56
2021/04/17 06:02:19;;;;;;;8.07;6.20;;;18.50;34.80;;;;;;5090612;28;20020;-57
2021/04/17 06:04:46;;;;;;;9.70;7.90;;;17.00;37.50;;;;;;5091182;28;20059;-55
2021/04/17 06:07:12;;;;;;;9.75;7.57;;;16.30;38.60;;;;;;5092315;28;20078;-58
2021/04/17 06:09:38;;;;;;;11.55;7.47;;;15.30;40.50;;;;;;5094133;28;20076;-57
2021/04/17 06:12:04;;;;;;;11.27;7.68;;;15.30;40.60;;;;;;5094627;28;20369;-48
2021/04/17 06:14:30;;;;;;;9.15;7.47;;;14.90;41.40;;;;;;5093338;28;20028;-57
2021/04/17 06:16:55;;;;;;;10.10;6.45;;;14.90;41.20;;;;;;5084179;28;20051;-58
2021/04/17 06:19:22;;;;;;;9.27;7.22;;;14.90;41.40;;;;;;5082470;28;20028;-57
2021/04/17 06:21:48;;;;;;;8.80;7.18;;;14.60;42.30;;;;;;5093470;28;20032;-56
2021/04/17 06:24:15;;;;;;;9.18;6.63;;;15.60;40.90;;;;;;5093768;28;20028;-58
2021/04/17 06:26:42;;;;;;;8.65;6.38;;;16.50;38.70;;;;;;5094310;28;20024;-59
2021/04/17 06:29:08;;;;;;;8.23;6.05;;;17.00;37.70;;;;;;5093140;28;20036;-58
2021/04/17 06:31:34;;;;;;;9.60;5.55;;;17.60;37.20;;;;;;5092880;28;20016;-60
2021/04/17 06:34:00;;;;;;;10.52;5.93;;;18.20;36.30;;;;;;5094286;28;20039;-57
2021/04/17 06:36:26;;;;;;;9.35;5.40;;;18.70;35.70;;;;;;5093142;28;20094;-57
2021/04/17 06:38:52;;;;;;;6.20;4.93;;;18.90;35.50;;;;;;5094383;28;20471;-54
2021/04/17 06:41:21;;;;;;;7.05;5.15;;;19.10;35.40;;;;;;5094110;28;20031;-57
2021/04/17 06:43:49;;;;;;;7.45;4.35;;;19.20;35.40;;;;;;5091734;28;20032;-52
2021/04/17 06:46:16;;;;;;;7.93;3.88;;;19.30;35.70;;;;;;5092498;28;20020;-60
2021/04/17 06:48:43;;;;;;;8.38;4.55;;;19.30;35.40;;;;;;5093389;28;20043;-55
2021/04/17 06:51:14;;;;;;;6.72;4.72;;;19.20;35.50;;;;;;5094254;28;20024;-54
2021/04/17 06:53:42;;;;;;;7.97;5.18;;;19.30;36.00;;;;;;5091960;28;20094;-56
2021/04/17 06:56:08;;;;;;;6.70;3.90;;;19.30;36.30;;;;;;5093247;28;20060;-58
2021/04/17 06:58:35;;;;;;;6.07;4.70;;;19.30;36.60;;;;;;5092905;28;20032;-55
2021/04/17 07:01:00;;;;;;;6.53;4.38;;;19.40;36.60;;;;;;5094129;28;20103;-55
2021/04/17 07:03:27;;;;;;;7.40;4.97;;;19.50;37.10;;;;;;5092794;28;20122;-53
2021/04/17 07:05:55;;;;;;;11.65;5.68;;;19.30;36.70;;;;;;5093265;28;20048;-54
2021/04/17 07:08:21;;;;;;;8.85;4.25;;;19.30;37.70;;;;;;5092322;28;20020;-54
2021/04/17 07:10:47;;;;;;;5.85;3.58;;;19.40;39.10;;;;;;5092362;28;20076;-54
2021/04/17 07:13:15;;;;;;;7.97;3.83;;;19.60;38.70;;;;;;5093081;28;20024;-58
2021/04/17 07:15:43;;;;;;;5.70;3.28;;;19.80;38.80;;;;;;5092404;28;20493;-58
2021/04/17 07:18:30;;;;;;;6.35;2.90;;;19.90;38.90;;;;;;5093234;28;20115;-58
2021/04/17 07:21:14;;;;;;;6.60;3.38;;;20.10;39.10;;;;;;5093232;28;20045;-54
2021/04/17 07:23:44;;;;;;;5.97;2.83;;;20.00;39.50;;;;;;5092652;28;20039;-44
2021/04/17 07:26:17;;;;;;;9.52;3.28;;;20.00;40.20;;;;;;5093208;28;20073;-63
2021/04/17 07:28:57;;;;;;;3.50;2.30;;;20.10;40.10;;;;;;5092399;28;20385;-61
2021/04/17 07:31:25;;;;;;;14.10;2.75;;;20.10;40.70;;;;;;5091945;28;20040;-56
2021/04/17 07:33:51;;;;;;;5.07;2.40;;;20.20;40.90;;;;;;5097434;28;20027;-63
2021/04/17 07:36:18;;;;;;;6.50;3.15;;;20.30;41.10;;;;;;5092565;28;20043;-66
2021/04/17 07:38:45;;;;;;;3.83;2.00;;;20.40;41.20;;;;;;5092283;28;20032;-59
2021/04/17 07:41:19;;;;;;;6.57;1.85;;;20.40;41.40;;;;;;5092791;28;20020;-64
2021/04/17 07:43:59;;;;;;;4.45;1.98;;;20.40;41.70;;;;;;5092215;28;20162;-59
2021/04/17 07:46:39;;;;;;;6.53;2.08;;;20.40;42.20;;;;;;5092790;28;20373;-60
2021/04/17 07:49:13;;;;;;;6.13;1.60;;;20.50;41.90;;;;;;5090158;28;20039;-47
2021/04/17 07:52:26;;;;;;;7.05;1.95;;;20.50;42.50;;;;;;5091851;28;20027;-61
2021/04/17 07:54:53;;;;;;;6.60;2.05;;;20.50;42.50;;;;;;5075170;28;20036;-56
2021/04/17 07:57:18;;;;;;;7.43;2.17;;;20.50;43.00;;;;;;5091907;28;20036;-67
2021/04/17 07:59:46;;;;;;;6.05;1.95;;;20.60;43.00;;;;;;5091820;28;20036;-61
2021/04/17 08:02:14;;;;;;;6.10;1.55;;;20.60;43.00;;;;;;5092905;28;20028;-61
2021/04/17 08:04:42;;;;;;;4.47;2.22;;;20.60;42.90;;;;;;5088196;28;20043;-61
2021/04/17 08:07:08;;;;;;;8.13;1.80;;;20.60;43.00;;;;;;5092838;28;20043;-59
2021/04/17 08:09:36;;;;;;;6.72;1.70;;;20.70;42.90;;;;;;5090782;28;20024;-60
2021/04/17 08:12:02;;;;;;;6.95;2.63;;;20.70;42.90;;;;;;5098920;28;20512;-60
2021/04/17 08:14:29;;;;;;;5.85;1.77;;;20.80;42.80;;;;;;5091990;28;20032;-58
2021/04/17 08:16:56;;;;;;;6.35;1.65;;;20.70;42.60;;;;;;5091851;28;20545;-59
2021/04/17 08:19:22;;;;;;;4.22;1.80;;;20.70;42.70;;;;;;5091651;28;20097;-65
2021/04/17 08:21:49;;;;;;;5.28;1.92;;;20.80;43.00;;;;;;5092060;28;20122;-43
2021/04/17 08:24:22;;;;;;;3.40;1.48;;;20.80;42.90;;;;;;5092225;28;20111;-44
2021/04/17 08:26:54;;;;;;;6.80;1.70;;;20.80;43.00;;;;;;5090572;28;20127;-47
2021/04/17 08:29:41;;;;;;;8.52;4.50;;;20.80;42.80;;;;;;5085493;28;20033;-49
2021/04/17 08:32:07;;;;;;;5.40;1.85;;;20.80;42.90;;;;;;5091304;28;20446;-45
2021/04/17 08:34:32;;;;;;;4.68;1.77;;;20.80;42.90;;;;;;5091697;28;20111;-44
2021/04/17 08:37:05;;;;;;;8.38;1.90;;;20.80;42.90;;;;;;5092205;28;20020;-44
2021/04/17 08:39:34;;;;;;;3.75;1.65;;;20.80;42.70;;;;;;5091492;28;20138;-44
2021/04/17 08:42:12;;;;;;;7.43;1.75;;;20.80;42.70;;;;;;5091566;28;20035;-42
2021/04/17 08:44:40;;;;;;;6.97;2.35;;;20.80;42.70;;;;;;5090974;28;20035;-43
2021/04/17 08:47:09;;;;;;;5.72;1.73;;;20.80;43.00;;;;;;5091754;28;20211;-43
2021/04/17 08:49:42;;;;;;;6.28;1.50;;;20.80;42.60;;;;;;5090961;28;20132;-42
2021/04/17 08:52:24;;;;;;;4.72;1.90;;;20.80;42.60;;;;;;5090139;28;20497;-44
2021/04/17 08:55:01;;;;;;;8.23;2.17;;;20.90;42.50;;;;;;5091520;28;20499;-40
2021/04/17 08:57:27;;;;;;;3.58;1.55;;;20.80;42.50;;;;;;5089960;28;20043;-43
2021/04/17 08:59:55;;;;;;;5.40;1.80;;;20.80;42.50;;;;;;5092438;28;20040;-43
2021/04/17 09:02:23;;;;;;;6.97;1.98;;;20.90;42.40;;;;;;5091510;28;20110;-51
2021/04/17 09:05:07;;;;;;;4.03;1.55;;;21.00;42.70;;;;;;5090868;28;20044;-47
2021/04/17 09:07:35;;;;;;;6.60;1.73;;;21.00;42.30;;;;;;5090684;28;20035;-44
2021/04/17 09:10:23;;;;;;;9.35;1.70;;;20.90;42.30;;;;;;5091951;28;20110;-46
2021/04/17 09:13:13;;;;;;;5.32;1.45;;;20.90;42.50;;;;;;5090990;28;20028;-49
2021/04/17 09:16:04;;;;;;;11.13;2.80;;;20.90;42.50;;;;;;5070892;28;20428;-45
2021/04/17 09:18:33;;;;;;;6.07;1.60;;;21.00;43.00;;;;;;5089876;28;20063;-47
2021/04/17 09:21:18;;;;;;;9.10;1.50;;;21.10;42.80;;;;;;5091342;28;20465;-44
2021/04/17 09:23:47;;;;;;;5.63;1.70;;;21.10;43.10;;;;;;5057820;28;20637;-44
2021/04/17 09:26:31;;;;;;;13.10;1.95;;;21.10;42.90;;;;;;5072335;28;20382;-48
2021/04/17 09:28:59;;;;;;;4.68;1.83;;;21.00;42.80;;;;;;5090011;28;20052;-45
2021/04/17 09:31:25;;;;;;;5.18;1.35;;;21.10;42.80;;;;;;5085844;28;20025;-52
2021/04/17 09:34:20;;;;;;;11.18;1.92;;;21.10;44.00;;;;;;5090209;28;20024;-44
2021/04/17 09:36:51;;;;;;;7.35;1.80;;;21.10;43.30;;;;;;5061740;28;20044;-45
2021/04/17 09:39:31;;;;;;;9.63;1.80;;;21.10;42.20;;;;;;5079527;28;20030;-46
2021/04/17 09:41:59;;;;;;;10.50;1.85;;;21.10;42.70;;;;;;5091441;28;20067;-43
2021/04/17 09:44:26;;;;;;;4.93;2.13;;;21.10;42.80;;;;;;5088528;28;20036;-51
2021/04/17 09:47:08;;;;;;;6.22;1.90;;;21.10;42.10;;;;;;5094323;28;20449;-45
2021/04/17 09:49:42;;;;;;;7.57;1.83;;;21.10;42.20;;;;;;5094067;28;20059;-43
2021/04/17 09:52:12;;;;;;;8.38;1.60;;;21.10;42.30;;;;;;5092808;28;20506;-45
2021/04/17 09:54:38;;;;;;;10.63;1.83;;;21.10;41.90;;;;;;5091082;28;20104;-45
2021/04/17 09:57:07;;;;;;;4.13;2.00;;;21.10;42.40;;;;;;5090847;28;20036;-41
2021/04/17 09:59:33;;;;;;;4.03;1.90;;;21.10;41.50;;;;;;5093446;28;20036;-44
2021/04/17 10:02:01;;;;;;;7.07;1.70;;;21.10;40.90;;;;;;5079215;28;20025;-40
2021/04/17 10:04:46;;;;;;;4.32;2.47;;;21.10;40.70;;;;;;5089779;28;20052;-41
2021/04/17 10:07:12;;;;;;;4.47;1.55;;;21.10;40.60;;;;;;5094525;28;20028;-45
2021/04/17 10:09:37;;;;;;;5.57;1.80;;;21.10;40.60;;;;;;5092041;28;20427;-46
2021/04/17 10:12:05;;;;;;;6.20;1.75;;;21.10;40.40;;;;;;5087016;28;20111;-42
2021/04/17 10:14:31;;;;;;;7.80;1.85;;;21.10;40.40;;;;;;5092331;28;20040;-40
2021/04/17 10:16:57;;;;;;;5.90;1.40;;;21.10;40.40;;;;;;5094016;28;20036;-41
2021/04/17 10:19:23;;;;;;;2.70;1.30;;;21.10;40.20;;;;;;5094058;28;20483;-50
2021/04/17 10:21:59;;;;;;;5.60;1.83;;;21.10;40.10;;;;;;5093828;28;20028;-45
2021/04/17 10:24:32;;;;;;;3.10;1.50;;;21.10;40.10;;;;;;5093556;28;20020;-53
2021/04/17 10:27:01;;;;;;;6.45;1.85;;;21.10;40.00;;;;;;5093622;28;20039;-53
2021/04/17 10:29:43;;;;;;;3.15;2.00;;;21.10;39.90;;;;;;5092883;28;20489;-46
2021/04/17 10:32:11;;;;;;;5.50;1.45;;;21.10;39.80;;;;;;5085642;28;20032;-39
2021/04/17 10:34:37;;;;;;;3.03;1.35;;;21.10;40.30;;;;;;5091249;28;20024;-46
2021/04/17 10:37:10;;;;;;;2.38;1.20;;;21.10;40.20;;;;;;5093169;28;20048;-45
2021/04/17 10:39:37;;;;;;;6.80;1.50;;;21.10;40.10;;;;;;5081264;28;20474;-45
2021/04/17 10:42:08;;;;;;;4.47;2.00;;;21.20;41.70;;;;;;5088248;28;20039;-42
2021/04/17 10:44:34;;;;;;;6.07;2.10;;;21.30;42.30;;;;;;5093111;28;20038;-44
2021/04/17 10:47:02;;;;;;;6.47;2.00;;;21.40;42.50;;;;;;5093530;28;20036;-41
2021/04/17 10:49:37;;;;;;;3.38;1.85;;;21.40;42.60;;;;;;5091628;28;20036;-40
2021/04/17 10:52:29;;;;;;;2.53;1.63;;;21.50;43.00;;;;;;5087428;28;20040;-44
2021/04/17 10:54:56;;;;;;;5.93;1.80;;;21.40;42.90;;;;;;5082418;28;20032;-44
2021/04/17 10:57:22;;;;;;;3.88;2.20;;;21.50;43.00;;;;;;5091766;28;20043;-42
2021/04/17 11:00:05;;;;;;;5.53;2.70;;;21.50;43.20;;;;;;5093246;28;20028;-41
2021/04/17 11:02:35;;;;;;;6.43;3.35;;;21.50;43.40;;;;;;5083127;28;20024;-48
2021/04/17 11:05:02;;;;;;;4.70;2.42;;;21.50;43.70;;;;;;5087230;28;20048;-44
2021/04/17 11:07:36;;;;;;;6.15;2.83;;;21.50;43.70;;;;;;5082290;28;20358;-46
2021/04/17 11:10:08;;;;;;;5.82;2.35;;;21.50;43.50;;;;;;5078604;28;20044;-42
2021/04/17 11:12:37;;;;;;;8.60;2.40;;;21.50;41.90;;;;;;5090873;28;20097;-45
2021/04/17 11:15:20;;;;;;;7.35;1.80;;;21.40;40.90;;;;;;5087325;28;20478;-40
2021/04/17 11:18:19;;;;;;;3.33;1.52;;;21.40;40.60;;;;;;5084912;28;20032;-45
2021/04/17 11:20:48;;;;;;;5.13;1.92;;;21.40;40.10;;;;;;5077968;28;20608;-41
2021/04/17 11:23:32;;;;;;;3.90;1.75;;;21.30;40.20;;;;;;5080720;28;20032;-45
2021/04/17 11:25:59;;;;;;;6.07;1.23;;;21.30;39.50;;;;;;5085378;28;20032;-45
2021/04/17 11:28:26;;;;;;;3.53;1.73;;;21.30;39.90;;;;;;5091927;28;20047;-50
2021/04/17 11:30:55;;;;;;;3.63;1.80;;;21.30;39.70;;;;;;5092933;28;20042;-40
2021/04/17 11:33:22;;;;;;;2.78;1.40;;;21.30;39.70;;;;;;5092523;28;20058;-41
2021/04/17 11:35:49;;;;;;;5.50;1.42;;;21.30;39.70;;;;;;5079861;28;20032;-43
2021/04/17 11:38:15;;;;;;;2.85;1.38;;;21.30;39.60;;;;;;5091689;28;20060;-45
2021/04/17 11:40:41;;;;;;;4.93;1.85;;;21.30;39.80;;;;;;5091324;28;20051;-45
2021/04/17 11:43:07;;;;;;;1.83;1.27;;;21.30;40.40;;;;;;5091346;28;20035;-48
2021/04/17 11:45:32;;;;;;;3.05;1.65;;;21.30;40.20;;;;;;5090845;28;20035;-45
2021/04/17 11:47:58;;;;;;;2.60;1.45;;;21.30;40.30;;;;;;5086603;28;20024;-39
2021/04/17 11:50:24;;;;;;;4.50;1.63;;;21.30;40.50;;;;;;5091217;28;20024;-52
2021/04/17 11:52:50;;;;;;;6.13;1.90;;;21.30;41.00;;;;;;5091676;28;20154;-41
2021/04/17 11:55:15;;;;;;;4.38;1.77;;;21.30;41.00;;;;;;5090550;28;20381;-43
2021/04/17 11:57:42;;;;;;;9.13;2.72;;;21.30;41.50;;;;;;5091332;28;20028;-40
2021/04/17 12:00:09;;;;;;;4.15;1.42;;;21.40;41.60;;;;;;5091276;28;20020;-40
2021/04/17 12:02:35;;;;;;;3.45;1.13;;;21.30;41.90;;;;;;5074989;28;20067;-43
2021/04/17 12:05:00;;;;;;;4.30;1.52;;;21.40;42.10;;;;;;5090294;28;20500;-44
2021/04/17 12:07:26;;;;;;;6.00;1.45;;;21.30;42.60;;;;;;5082285;28;20032;-51
2021/04/17 12:09:53;;;;;;;18.48;2.67;;;21.30;43.00;;;;;;5079747;28;20066;-41
2021/04/17 12:12:19;;;;;;;2.13;1.20;;;21.30;43.30;;;;;;5084798;28;20532;-47
2021/04/17 12:14:45;;;;;;;5.20;1.02;;;21.30;43.40;;;;;;5087609;28;20263;-47
2021/04/17 12:17:11;;;;;;;3.83;1.13;;;21.40;42.90;;;;;;5086939;28;20035;-45
2021/04/17 12:19:38;;;;;;;7.55;1.23;;;21.40;42.60;;;;;;5090157;28;20032;-44
2021/04/17 12:22:04;;;;;;;8.05;1.30;;;21.30;42.80;;;;;;5092472;28;20032;-44
2021/04/17 12:24:30;;;;;;;3.28;1.10;;;21.30;43.30;;;;;;5090298;28;20043;-41
2021/04/17 12:26:56;;;;;;;3.50;1.30;;;21.30;43.60;;;;;;5091145;28;20099;-43
2021/04/17 12:29:21;;;;;;;1.98;1.30;;;21.30;42.70;;;;;;5091287;28;20104;-44
2021/04/17 12:31:47;;;;;;;8.80;1.50;;;21.30;42.90;;;;;;5083520;28;20920;-43
2021/04/17 12:34:14;;;;;;;6.13;1.60;;;21.30;42.50;;;;;;5091692;28;20028;-41
2021/04/17 12:36:40;;;;;;;7.43;1.38;;;21.40;42.00;;;;;;5090759;28;20024;-46
2021/04/17 12:39:06;;;;;;;15.10;3.47;;;21.40;41.80;;;;;;5091783;28;20103;-44
2021/04/17 12:41:35;;;;;;;18.85;2.50;;;21.40;42.70;;;;;;5090904;28;20035;-45
2021/04/17 12:44:02;;;;;;;9.32;2.15;;;21.40;42.80;;;;;;5082694;28;20028;-49
2021/04/17 12:46:27;;;;;;;14.23;2.70;;;21.30;42.90;;;;;;5090734;28;20024;-55
2021/04/17 12:48:53;;;;;;;18.98;2.60;;;21.30;43.20;;;;;;5093436;28;20078;-45
2021/04/17 12:51:19;;;;;;;15.88;2.55;;;21.30;43.90;;;;;;5091094;28;20036;-46
2021/04/17 12:53:44;;;;;;;18.95;3.45;;;21.30;43.20;;;;;;5087358;28;20656;-48